createdAt,value
2023-05-19T00:01:20.673Z,12.85
2023-05-19T00:03:57.885Z,11.52
2023-05-19T00:06:27.507Z,12.60
2023-05-19T00:09:01.750Z,21.27
2023-05-19T00:11:29.804Z,10.75
2023-05-19T00:13:58.871Z,16.92
2023-05-19T00:16:27.760Z,12.43
2023-05-19T00:18:54.896Z,13.52
2023-05-19T00:21:22.010Z,12.63
2023-05-19T00:23:48.994Z,12.55
2023-05-19T00:26:18.124Z,12.45
2023-05-19T00:28:55.001Z,14.52
2023-05-19T00:31:22.191Z,13.10
2023-05-19T00:33:49.141Z,15.60
2023-05-19T00:36:16.460Z,14.73
2023-05-19T00:38:43.437Z,13.77
2023-05-19T00:41:11.193Z,11.00
2023-05-19T00:43:38.125Z,14.77
2023-05-19T00:46:05.149Z,15.65
2023-05-19T00:48:32.201Z,17.67
2023-05-19T00:51:04.934Z,19.35
2023-05-19T00:53:34.108Z,16.88
2023-05-19T00:56:03.396Z,18.20
2023-05-19T00:58:33.020Z,14.77
2023-05-19T01:01:04.790Z,16.65
2023-05-19T01:03:35.374Z,13.77
2023-05-19T01:06:05.861Z,14.35
2023-05-19T01:08:34.591Z,14.10
2023-05-19T01:11:01.778Z,12.90
2023-05-19T01:13:29.333Z,15.60
2023-05-19T01:16:19.453Z,16.63
2023-05-19T01:19:11.119Z,14.55
2023-05-19T01:21:51.442Z,16.95
2023-05-19T01:24:41.080Z,13.52
2023-05-19T01:27:38.687Z,16.27
2023-05-19T01:30:25.672Z,14.90
2023-05-19T01:33:00.513Z,18.95
2023-05-19T01:35:28.922Z,16.35
2023-05-19T01:38:00.369Z,14.13
2023-05-19T01:40:28.893Z,13.85
2023-05-19T01:42:59.078Z,15.85
2023-05-19T01:45:28.216Z,12.50
2023-05-19T01:47:57.945Z,20.67
2023-05-19T01:50:25.052Z,14.50
2023-05-19T01:52:52.144Z,13.95
2023-05-19T01:55:19.493Z,14.98
2023-05-19T01:58:02.718Z,13.05
2023-05-19T02:00:53.958Z,12.60
2023-05-19T02:03:38.718Z,14.80
2023-05-19T02:06:30.175Z,13.77
2023-05-19T02:09:12.369Z,13.63
2023-05-19T02:12:11.068Z,15.38
2023-05-19T02:14:49.308Z,17.67
2023-05-19T02:17:18.881Z,14.48
2023-05-19T02:19:46.775Z,16.13
2023-05-19T02:22:14.948Z,13.13
2023-05-19T02:24:41.860Z,15.32
2023-05-19T02:27:08.983Z,15.88
2023-05-19T02:29:36.538Z,14.63
2023-05-19T02:32:03.615Z,16.77
2023-05-19T02:34:30.876Z,13.63
2023-05-19T02:36:57.942Z,15.95
2023-05-19T02:39:25.019Z,15.95
2023-05-19T02:41:52.084Z,19.02
2023-05-19T02:44:19.164Z,12.32
2023-05-19T02:46:46.286Z,14.40
2023-05-19T02:49:13.267Z,12.45
2023-05-19T02:51:40.440Z,13.30
2023-05-19T02:54:07.522Z,12.07
2023-05-19T02:56:34.521Z,13.27
2023-05-19T02:59:01.901Z,13.32
2023-05-19T03:01:29.004Z,13.52
2023-05-19T03:03:56.179Z,12.73
2023-05-19T03:06:23.760Z,14.23
2023-05-19T03:08:51.235Z,11.90
2023-05-19T03:11:18.303Z,13.80
2023-05-19T03:13:45.536Z,14.77
2023-05-19T03:16:12.904Z,20.80
2023-05-19T03:18:39.963Z,16.25
2023-05-19T03:21:07.014Z,21.60
2023-05-19T03:23:34.005Z,18.35
2023-05-19T03:26:01.534Z,21.60
2023-05-19T03:28:28.687Z,20.70
2023-05-19T03:30:55.775Z,23.35
2023-05-19T03:33:30.165Z,23.83
2023-05-19T03:35:57.825Z,19.67
2023-05-19T03:38:25.847Z,22.75
2023-05-19T03:40:58.413Z,26.20
2023-05-19T03:43:25.392Z,25.10
2023-05-19T03:46:02.725Z,26.90
2023-05-19T03:48:41.638Z,24.60
2023-05-19T03:51:28.888Z,23.30
2023-05-19T03:54:02.478Z,22.35
2023-05-19T03:56:30.155Z,28.38
2023-05-19T03:58:57.104Z,24.27
2023-05-19T04:01:24.261Z,26.02
2023-05-19T04:03:51.294Z,22.30
2023-05-19T04:06:19.304Z,23.27
2023-05-19T04:08:47.320Z,22.38
2023-05-19T04:11:14.441Z,22.77
2023-05-19T04:13:41.389Z,21.17
2023-05-19T04:16:08.598Z,22.58
2023-05-19T04:18:35.907Z,25.30
2023-05-19T04:21:04.621Z,22.17
2023-05-19T04:23:32.782Z,21.35
2023-05-19T04:26:01.795Z,24.75
2023-05-19T04:28:30.559Z,20.50
2023-05-19T04:30:58.911Z,35.63
2023-05-19T04:33:26.351Z,19.33
2023-05-19T04:35:53.613Z,22.73
2023-05-19T04:38:22.318Z,22.98
2023-05-19T04:40:50.877Z,18.30
2023-05-19T04:43:19.573Z,17.67
2023-05-19T04:45:47.565Z,18.17
2023-05-19T04:48:15.484Z,17.73
2023-05-19T04:50:42.560Z,20.65
2023-05-19T04:53:10.420Z,17.25
2023-05-19T04:55:39.067Z,16.42
2023-05-19T04:58:07.058Z,16.15
2023-05-19T05:00:36.099Z,18.65
2023-05-19T05:03:07.335Z,16.48
2023-05-19T05:05:35.354Z,14.32
2023-05-19T05:08:03.422Z,13.27
2023-05-19T05:10:35.718Z,14.57
2023-05-19T05:13:03.264Z,13.02
2023-05-19T05:15:30.715Z,13.45
2023-05-19T05:18:00.788Z,12.23
2023-05-19T05:20:28.319Z,13.40
2023-05-19T05:22:56.110Z,12.15
2023-05-19T05:25:23.868Z,11.38
2023-05-19T05:27:51.509Z,10.85
2023-05-19T05:30:19.106Z,15.25
2023-05-19T05:32:46.545Z,13.35
2023-05-19T05:35:28.341Z,12.55
2023-05-19T05:37:56.110Z,11.55
2023-05-19T05:40:23.857Z,11.20
2023-05-19T05:42:53.231Z,12.27
2023-05-19T05:45:23.737Z,12.03
2023-05-19T05:47:53.125Z,9.70
2023-05-19T05:50:20.585Z,9.40
2023-05-19T05:52:48.788Z,12.95
2023-05-19T05:57:45.454Z,11.60
2023-05-19T06:00:16.162Z,9.05
2023-05-19T06:02:47.575Z,9.10
2023-05-19T06:05:16.252Z,8.80
2023-05-19T06:07:44.966Z,7.75
2023-05-19T06:10:15.644Z,7.70
2023-05-19T06:12:43.548Z,8.52
2023-05-19T06:15:11.853Z,7.13
2023-05-19T06:17:58.874Z,7.32
2023-05-19T06:20:25.953Z,7.30
2023-05-19T06:22:52.958Z,7.70
2023-05-19T06:25:25.082Z,7.35
2023-05-19T06:27:52.601Z,7.90
2023-05-19T06:30:20.433Z,8.32
2023-05-19T06:32:57.596Z,8.85
2023-05-19T06:35:26.120Z,8.73
2023-05-19T06:37:53.447Z,8.32
2023-05-19T06:40:21.022Z,8.40
2023-05-19T06:42:48.268Z,8.35
2023-05-19T06:45:22.721Z,7.88
2023-05-19T06:47:51.599Z,8.52
2023-05-19T06:50:19.024Z,10.55
2023-05-19T06:52:49.167Z,9.60
2023-05-19T06:55:16.626Z,8.52
2023-05-19T06:57:43.830Z,8.70
2023-05-19T07:00:14.596Z,8.90
2023-05-19T07:02:46.845Z,8.02
2023-05-19T07:05:14.634Z,8.23
2023-05-19T07:07:44.326Z,8.85
2023-05-19T07:10:14.377Z,8.70
2023-05-19T07:12:41.801Z,9.48
2023-05-19T07:15:09.593Z,7.80
2023-05-19T07:17:37.661Z,8.48
2023-05-19T07:20:10.241Z,8.40
2023-05-19T07:22:40.226Z,8.93
2023-05-19T07:25:08.563Z,8.90
2023-05-19T07:27:36.137Z,9.32
2023-05-19T07:30:04.858Z,8.93
2023-05-19T07:32:31.883Z,8.07
2023-05-19T07:34:58.935Z,8.82
2023-05-19T07:37:26.646Z,8.40
2023-05-19T07:39:53.659Z,9.02
2023-05-19T07:42:20.728Z,8.98
2023-05-19T07:44:47.848Z,8.63
2023-05-19T07:47:14.806Z,8.93
2023-05-19T07:49:41.910Z,7.72
2023-05-19T07:52:09.315Z,7.70
2023-05-19T07:54:36.513Z,10.63
2023-05-19T07:57:03.644Z,9.05
2023-05-19T07:59:30.742Z,9.20
2023-05-19T08:01:57.705Z,8.15
2023-05-19T08:04:24.797Z,8.35
2023-05-19T08:06:53.279Z,8.65
2023-05-19T08:09:20.412Z,8.52
2023-05-19T08:11:47.508Z,8.25
2023-05-19T08:14:14.592Z,7.50
2023-05-19T08:16:43.329Z,8.18
2023-05-19T08:19:10.328Z,7.43
2023-05-19T08:21:37.582Z,6.80
2023-05-19T08:24:04.766Z,8.45
2023-05-19T08:26:36.900Z,8.13
2023-05-19T08:29:05.021Z,7.55
2023-05-19T08:31:32.180Z,18.80
2023-05-19T08:33:59.305Z,7.03
2023-05-19T08:36:26.356Z,8.68
2023-05-19T08:38:53.345Z,7.78
2023-05-19T08:41:21.829Z,7.32
2023-05-19T08:43:53.041Z,8.32
2023-05-19T08:46:23.204Z,8.40
2023-05-19T08:48:59.471Z,8.80
2023-05-19T08:51:57.784Z,10.02
2023-05-19T08:54:34.374Z,8.65
2023-05-19T08:57:02.542Z,8.02
2023-05-19T08:59:31.059Z,7.85
2023-05-19T09:01:58.864Z,15.00
2023-05-19T09:04:29.922Z,7.90
2023-05-19T09:06:57.272Z,8.15
2023-05-19T09:09:24.429Z,8.40
2023-05-19T09:11:51.511Z,9.27
2023-05-19T09:14:18.650Z,8.13
2023-05-19T09:16:48.511Z,8.38
2023-05-19T09:19:16.296Z,7.38
2023-05-19T09:21:44.635Z,8.95
2023-05-19T09:24:11.924Z,7.90
2023-05-19T09:26:41.257Z,7.65
2023-05-19T09:29:26.464Z,7.80
2023-05-19T09:31:56.150Z,7.43
2023-05-19T09:34:25.196Z,8.30
2023-05-19T09:36:53.926Z,10.57
2023-05-19T09:39:24.397Z,8.20
2023-05-19T09:41:55.315Z,7.68
2023-05-19T09:44:23.792Z,7.60
2023-05-19T09:46:52.000Z,9.18
2023-05-19T09:49:23.558Z,7.43
2023-05-19T09:52:02.691Z,7.60
2023-05-19T09:54:32.503Z,7.28
2023-05-19T09:59:35.072Z,9.00
2023-05-19T10:02:03.158Z,7.85
2023-05-19T10:04:31.316Z,9.68
2023-05-19T10:07:05.885Z,6.75
2023-05-19T10:09:34.404Z,6.85
2023-05-19T10:12:02.771Z,6.13
2023-05-19T10:14:30.295Z,5.55
2023-05-19T10:16:59.039Z,5.20
2023-05-19T10:19:29.462Z,5.47
2023-05-19T10:21:58.003Z,6.68
2023-05-19T10:24:25.146Z,6.50
2023-05-19T10:26:58.323Z,6.57
2023-05-19T10:29:31.017Z,6.50
2023-05-19T10:32:10.781Z,7.10
2023-05-19T10:34:50.599Z,6.53
2023-05-19T10:37:25.293Z,6.05
2023-05-19T10:39:53.060Z,6.60
2023-05-19T10:42:29.733Z,6.72
2023-05-19T10:45:28.030Z,6.47
2023-05-19T10:47:56.115Z,7.57
2023-05-19T10:50:24.002Z,7.18
2023-05-19T10:52:56.146Z,5.82
2023-05-19T10:56:04.355Z,15.00
2023-05-19T10:58:46.743Z,6.25
2023-05-19T11:01:16.802Z,6.32
2023-05-19T11:03:55.113Z,6.38
2023-05-19T11:06:32.717Z,8.32
2023-05-19T11:09:38.206Z,6.00
2023-05-19T11:12:08.608Z,7.32
2023-05-19T11:14:35.830Z,7.20
2023-05-19T11:17:02.945Z,7.40
2023-05-19T11:19:31.510Z,7.85
2023-05-19T11:22:12.228Z,8.77
2023-05-19T11:24:41.116Z,7.28
2023-05-19T11:27:38.475Z,7.35
2023-05-19T11:30:15.173Z,8.00
2023-05-19T11:32:43.249Z,8.10
2023-05-19T11:35:10.702Z,10.82
2023-05-19T11:37:37.986Z,8.27
2023-05-19T11:40:07.502Z,8.70
2023-05-19T11:42:35.511Z,7.15
2023-05-19T11:45:03.203Z,7.45
2023-05-19T11:47:42.028Z,8.57
2023-05-19T11:50:14.794Z,8.00
2023-05-19T11:52:45.439Z,8.98
2023-05-19T11:55:22.359Z,8.38
2023-05-19T11:58:03.812Z,8.52
2023-05-19T12:00:40.118Z,8.20
2023-05-19T12:03:09.576Z,8.15
2023-05-19T12:05:42.788Z,7.60
2023-05-19T12:08:14.022Z,9.30
2023-05-19T12:10:41.291Z,8.45
2023-05-19T12:13:10.327Z,9.27
2023-05-19T12:15:39.406Z,8.77
2023-05-19T12:18:07.552Z,9.13
2023-05-19T12:20:38.004Z,8.70
2023-05-19T12:23:06.027Z,9.63
2023-05-19T12:25:33.545Z,7.90
2023-05-19T12:28:04.956Z,9.23
2023-05-19T12:30:33.961Z,9.32
2023-05-19T12:33:02.455Z,8.75
2023-05-19T12:35:36.558Z,11.48
2023-05-19T12:38:09.389Z,9.15
2023-05-19T12:40:37.906Z,10.50
2023-05-19T12:43:07.017Z,9.73
2023-05-19T12:45:38.999Z,12.15
2023-05-19T12:48:11.664Z,8.75
2023-05-19T12:50:39.083Z,9.40
2023-05-19T12:53:16.927Z,9.32
2023-05-19T12:55:45.762Z,9.57
2023-05-19T12:58:13.582Z,8.07
2023-05-19T13:00:47.612Z,9.45
2023-05-19T13:03:19.811Z,9.45
2023-05-19T13:05:49.320Z,9.13
2023-05-19T13:08:18.836Z,9.32
2023-05-19T13:10:47.945Z,10.35
2023-05-19T13:13:15.080Z,9.77
2023-05-19T13:15:44.688Z,8.77
2023-05-19T13:18:13.596Z,9.18
2023-05-19T13:20:42.499Z,9.18
2023-05-19T13:23:13.954Z,8.97
2023-05-19T13:25:41.720Z,9.40
2023-05-19T13:28:09.696Z,8.45
2023-05-19T13:30:39.396Z,9.02
2023-05-19T13:33:07.001Z,8.70
2023-05-19T13:35:37.989Z,7.85
2023-05-19T13:38:10.626Z,10.57
2023-05-19T13:40:38.444Z,8.95
2023-05-19T13:43:06.243Z,8.40
2023-05-19T13:45:33.550Z,9.40
2023-05-19T13:48:00.659Z,9.05
2023-05-19T13:50:27.794Z,8.60
2023-05-19T13:52:54.884Z,9.02
2023-05-19T13:55:22.781Z,8.60
2023-05-19T13:57:49.933Z,10.00
2023-05-19T14:00:18.522Z,9.23
2023-05-19T14:02:45.690Z,9.40
2023-05-19T14:05:12.868Z,8.82
2023-05-19T14:07:40.026Z,9.07
2023-05-19T14:10:08.847Z,10.15
2023-05-19T14:12:49.357Z,9.68
2023-05-19T14:15:20.182Z,9.85
2023-05-19T14:17:49.228Z,10.20
2023-05-19T14:20:16.361Z,9.18
2023-05-19T14:22:43.365Z,9.75
2023-05-19T14:25:10.586Z,9.05
2023-05-19T14:27:37.726Z,10.48
2023-05-19T14:30:05.067Z,10.07
2023-05-19T14:32:32.216Z,10.85
2023-05-19T14:34:59.215Z,9.57
2023-05-19T14:37:29.458Z,9.00
2023-05-19T14:39:57.780Z,10.50
2023-05-19T14:42:25.315Z,8.80
2023-05-19T14:44:52.451Z,8.93
2023-05-19T14:47:19.399Z,8.90
2023-05-19T14:49:46.446Z,10.38
2023-05-19T14:52:13.452Z,9.13
2023-05-19T14:54:40.520Z,9.35
2023-05-19T14:57:08.336Z,9.23
2023-05-19T14:59:38.965Z,9.07
2023-05-19T15:02:06.300Z,10.27
2023-05-19T15:04:33.348Z,8.55
2023-05-19T15:09:30.325Z,9.93
2023-05-19T15:11:57.321Z,10.00
2023-05-19T15:14:24.500Z,9.10
2023-05-19T15:16:51.678Z,9.35
2023-05-19T15:19:18.846Z,7.68
2023-05-19T15:21:46.068Z,8.32
2023-05-19T15:24:13.060Z,8.05
2023-05-19T15:26:40.072Z,8.98
2023-05-19T15:29:07.171Z,8.25
2023-05-19T15:31:35.730Z,8.38
2023-05-19T15:34:04.426Z,8.07
2023-05-19T15:36:31.804Z,8.10
2023-05-19T15:38:58.862Z,8.05
2023-05-19T15:41:26.179Z,7.63
2023-05-19T15:43:53.877Z,8.65
2023-05-19T15:46:20.960Z,9.05
2023-05-19T15:48:48.139Z,8.20
2023-05-19T15:51:15.567Z,7.93
2023-05-19T15:53:42.876Z,8.30
2023-05-19T15:56:09.860Z,8.55
2023-05-19T15:58:36.922Z,7.68
2023-05-19T16:01:04.155Z,8.07
2023-05-19T16:03:31.771Z,8.02
2023-05-19T16:05:58.903Z,7.97
2023-05-19T16:08:26.073Z,8.70
2023-05-19T16:10:54.002Z,8.70
2023-05-19T16:13:21.528Z,7.78
2023-05-19T16:15:48.899Z,8.25
2023-05-19T16:18:16.567Z,8.25
2023-05-19T16:20:44.358Z,7.68
2023-05-19T16:23:11.453Z,10.00
2023-05-19T16:25:38.581Z,8.30
2023-05-19T16:28:06.263Z,8.52
2023-05-19T16:30:33.437Z,8.32
2023-05-19T16:33:00.580Z,7.57
2023-05-19T16:35:31.271Z,8.27
2023-05-19T16:37:58.585Z,7.85
2023-05-19T16:40:26.069Z,7.90
2023-05-19T16:42:53.777Z,8.65
2023-05-19T16:45:20.866Z,7.45
2023-05-19T16:47:48.104Z,7.43
2023-05-19T16:50:15.174Z,8.60
2023-05-19T16:52:42.253Z,8.25
2023-05-19T16:55:09.692Z,7.60
2023-05-19T16:57:36.865Z,7.53
2023-05-19T17:00:04.282Z,7.93
2023-05-19T17:02:31.589Z,7.70
2023-05-19T17:04:59.842Z,7.75
2023-05-19T17:07:29.285Z,7.25
2023-05-19T17:09:56.427Z,8.15
2023-05-19T17:12:23.486Z,8.55
2023-05-19T17:14:52.325Z,7.45
2023-05-19T17:17:19.449Z,7.23
2023-05-19T17:19:47.110Z,6.93
2023-05-19T17:22:14.103Z,10.05
2023-05-19T17:24:41.522Z,7.90
2023-05-19T17:27:11.464Z,8.40
2023-05-19T17:29:38.595Z,7.03
2023-05-19T17:32:05.712Z,7.70
2023-05-19T17:34:32.857Z,7.70
2023-05-19T17:36:59.862Z,8.15
2023-05-19T17:39:26.921Z,7.93
2023-05-19T17:41:54.071Z,7.68
2023-05-19T17:44:21.164Z,8.13
2023-05-19T17:46:48.342Z,9.05
2023-05-19T17:49:15.658Z,8.88
2023-05-19T17:51:42.905Z,7.80
2023-05-19T17:54:09.984Z,7.53
2023-05-19T17:56:42.616Z,7.85
2023-05-19T17:59:10.058Z,8.80
2023-05-19T18:01:37.609Z,7.50
2023-05-19T18:04:05.122Z,8.13
2023-05-19T18:06:32.525Z,8.80
2023-05-19T18:09:01.483Z,7.78
2023-05-19T18:11:28.770Z,10.17
2023-05-19T18:13:55.814Z,9.02
2023-05-19T18:16:22.910Z,10.00
2023-05-19T18:18:50.840Z,8.43
2023-05-19T18:21:18.432Z,9.07
2023-05-19T18:23:46.316Z,8.32
2023-05-19T18:26:13.455Z,9.02
2023-05-19T18:28:41.730Z,9.23
2023-05-19T18:31:17.650Z,8.73
2023-05-19T18:33:45.597Z,9.80
2023-05-19T18:36:13.756Z,9.05
2023-05-19T18:38:41.268Z,7.75
2023-05-19T18:41:08.624Z,8.57
2023-05-19T18:43:35.721Z,8.15
2023-05-19T18:46:02.816Z,12.25
2023-05-19T18:48:29.839Z,8.57
2023-05-19T18:50:57.519Z,8.88
2023-05-19T18:53:24.796Z,8.63
2023-05-19T18:55:51.753Z,8.10
2023-05-19T18:58:19.124Z,8.88
2023-05-19T19:00:46.270Z,8.50
2023-05-19T19:03:13.327Z,8.85
2023-05-19T19:05:40.383Z,9.40
2023-05-19T19:08:07.640Z,8.55
2023-05-19T19:10:39.174Z,8.23
2023-05-19T19:13:06.564Z,8.63
2023-05-19T19:15:33.490Z,8.18
2023-05-19T19:18:00.681Z,8.63
2023-05-19T19:20:27.813Z,8.20
2023-05-19T19:22:54.945Z,8.55
2023-05-19T19:25:23.516Z,9.60
2023-05-19T19:27:53.557Z,8.53
2023-05-19T19:30:20.693Z,8.35
2023-05-19T19:32:47.752Z,9.63
2023-05-19T19:35:16.158Z,8.15
2023-05-19T19:37:43.300Z,8.65
2023-05-19T19:40:10.829Z,8.10
2023-05-19T19:42:38.714Z,8.65
2023-05-19T19:45:07.133Z,8.93
2023-05-19T19:47:34.234Z,8.80
2023-05-19T19:50:02.799Z,8.50
2023-05-19T19:52:29.790Z,8.25
2023-05-19T19:54:57.519Z,7.25
2023-05-19T19:57:24.884Z,8.05
2023-05-19T19:59:55.368Z,7.88
2023-05-19T20:02:22.841Z,8.07
2023-05-19T20:04:49.850Z,8.55
2023-05-19T20:07:21.043Z,7.63
2023-05-19T20:09:49.846Z,8.50
2023-05-19T20:12:16.778Z,8.75
2023-05-19T20:14:43.832Z,9.40
2023-05-19T20:17:10.829Z,8.70
2023-05-19T20:19:37.910Z,8.27
2023-05-19T20:22:05.103Z,8.40
2023-05-19T20:24:32.052Z,8.55
2023-05-19T20:26:59.041Z,8.98
2023-05-19T20:29:26.150Z,8.48
2023-05-19T20:31:54.379Z,8.88
2023-05-19T20:34:22.578Z,8.10
2023-05-19T20:36:49.606Z,8.55
2023-05-19T20:39:16.757Z,8.38
2023-05-19T20:41:43.715Z,7.57
2023-05-19T20:44:11.881Z,8.15
2023-05-19T20:46:38.903Z,8.82
2023-05-19T20:49:05.956Z,8.07
2023-05-19T20:51:33.015Z,8.25
2023-05-19T20:54:00.333Z,8.77
2023-05-19T20:56:27.589Z,8.65
2023-05-19T20:58:54.741Z,8.15
2023-05-19T21:01:21.763Z,8.55
2023-05-19T21:03:48.742Z,8.68
2023-05-19T21:06:15.890Z,9.27
2023-05-19T21:08:42.900Z,9.13
2023-05-19T21:11:09.896Z,8.13
2023-05-19T21:13:39.384Z,11.85
2023-05-19T21:16:06.776Z,8.52
2023-05-19T21:18:35.120Z,9.00
2023-05-19T21:21:04.172Z,8.07
2023-05-19T21:23:31.261Z,8.45
2023-05-19T21:25:59.834Z,8.68
2023-05-19T21:28:26.828Z,8.77
2023-05-19T21:30:53.889Z,9.45
2023-05-19T21:33:20.988Z,8.70
2023-05-19T21:35:48.076Z,9.35
2023-05-19T21:38:23.388Z,8.77
2023-05-19T21:40:52.221Z,8.98
2023-05-19T21:43:19.722Z,10.38
2023-05-19T21:45:46.669Z,9.77
2023-05-19T21:48:13.767Z,10.45
2023-05-19T21:50:40.868Z,11.38
2023-05-19T21:53:08.004Z,11.77
2023-05-19T21:55:35.201Z,12.75
2023-05-19T21:58:02.742Z,14.60
2023-05-19T22:00:29.966Z,13.80
2023-05-19T22:02:57.026Z,14.13
2023-05-19T22:05:24.169Z,14.43
2023-05-19T22:07:51.223Z,15.55
2023-05-19T22:10:18.386Z,15.65
2023-05-19T22:12:45.370Z,16.05
2023-05-19T22:15:13.611Z,14.85
2023-05-19T22:17:40.818Z,15.60
2023-05-19T22:20:08.685Z,14.63
2023-05-19T22:22:35.878Z,13.68
2023-05-19T22:25:03.990Z,14.40
2023-05-19T22:27:31.032Z,17.38
2023-05-19T22:29:59.958Z,14.70
2023-05-19T22:32:27.162Z,14.35
2023-05-19T22:34:54.274Z,17.10
2023-05-19T22:37:23.795Z,13.70
2023-05-19T22:39:51.466Z,14.15
2023-05-19T22:42:18.878Z,13.65
2023-05-19T22:44:46.146Z,14.55
2023-05-19T22:47:14.069Z,14.00
2023-05-19T22:49:41.819Z,14.68
2023-05-19T22:52:11.847Z,13.15
2023-05-19T22:54:39.021Z,14.68
2023-05-19T22:57:06.702Z,16.00
2023-05-19T22:59:35.629Z,20.80
2023-05-19T23:02:02.681Z,25.45
2023-05-19T23:04:29.713Z,21.25
2023-05-19T23:06:56.742Z,22.48
2023-05-19T23:09:23.910Z,23.58
2023-05-19T23:11:51.103Z,19.92
2023-05-19T23:14:18.907Z,19.77
2023-05-19T23:16:46.421Z,21.08
2023-05-19T23:19:13.542Z,21.70
2023-05-19T23:21:41.279Z,19.60
2023-05-19T23:24:08.393Z,20.58
2023-05-19T23:26:35.315Z,20.98
2023-05-19T23:29:02.335Z,19.90
2023-05-19T23:31:30.804Z,19.88
2023-05-19T23:33:57.843Z,19.15
2023-05-19T23:36:24.810Z,22.48
2023-05-19T23:38:51.860Z,21.13
2023-05-19T23:41:18.993Z,24.80
2023-05-19T23:43:45.964Z,29.70
2023-05-19T23:46:13.031Z,29.17
2023-05-19T23:48:40.186Z,25.52
2023-05-19T23:51:07.134Z,19.55
2023-05-19T23:53:34.330Z,17.60
2023-05-19T23:56:01.409Z,17.15
2023-05-19T23:58:28.459Z,16.83
